Terminal Aerodrome Forecast
Issued by NWS Sterling, VA

Home | Current Version | Previous Version | Text Only | Print | Product List | Glossary On
Versions: 1 2 3 4 5 6 7 8 9 10 11 12 13 14 15 16 17 18 19 20 21 22
044
FTUS41 KLWX 192333
TAFBWI
TAF
KBWI 192333Z 2000/2106 30008KT P6SM FEW150 FEW250
     FM200800 32004KT P6SM FEW140 SCT250
     FM201400 35008KT P6SM FEW120 SCT250
     FM210400 05005KT P6SM FEW150 SCT250=

USA.gov is the U.S. government's official web portal to all federal, state and local government web resources and services.